Time;durP1;ratioP1;P1;durP2;ratioP2;P2;SDS_P1;SDS_P2;PMS_P1;PMS_P2;Temp;Humidity;BMP_temperature;BMP_pressure;BME280_temperature;BME280_humidity;BME280_pressure;Samples;Min_cycle;Max_cycle;Signal;HPM_P1;HPM_P2
2024/02/21 00:01:21;;;;;;;;;;;;;;;17.26;43.70;101612.84;5038341;28;1150;-45
2024/02/21 00:03:47;;;;;;;;;;;;;;;17.00;43.80;101615.28;5025724;28;1060;-49
2024/02/21 00:06:12;;;;;;;;;;;;;;;17.74;43.25;101613.88;5031378;28;1122;-45
2024/02/21 00:08:38;;;;;;;;;;;;;;;17.93;42.28;101617.09;5018401;28;1971;-49
2024/02/21 00:11:03;;;;;;;;;;;;;;;17.18;43.77;101614.13;5036616;28;1043;-46
2024/02/21 00:13:29;;;;;;;;;;;;;;;17.96;42.89;101615.75;5026446;28;1127;-46
2024/02/21 00:15:54;;;;;;;;;;;;;;;17.73;42.84;101609.47;5036917;28;1048;-45
2024/02/21 00:18:20;;;;;;;;;;;;;;;17.15;44.08;101616.56;5037286;28;2381;-44
2024/02/21 00:20:45;;;;;;;;;;;;;;;17.30;43.87;101603.00;5037705;28;1139;-46
2024/02/21 00:23:11;;;;;;;;;;;;;;;18.60;41.27;101597.47;5037551;28;1374;-46
2024/02/21 00:25:37;;;;;;;;;;;;;;;17.38;43.54;101608.03;5038121;28;1095;-47
2024/02/21 00:28:02;;;;;;;;;;;;;;;18.46;41.67;101603.44;5037956;28;1015;-46
2024/02/21 00:30:28;;;;;;;;;;;;;;;17.91;42.77;101601.97;5019016;28;1902;-49
2024/02/21 00:32:53;;;;;;;;;;;;;;;17.18;44.10;101605.91;5029710;28;1059;-49
2024/02/21 00:35:19;;;;;;;;;;;;;;;19.06;40.19;101594.94;5037499;28;1091;-44
2024/02/21 00:37:44;;;;;;;;;;;;;;;17.58;43.27;101606.56;5026231;28;1012;-44
2024/02/21 00:40:10;;;;;;;;;;;;;;;17.28;43.71;101597.75;5036047;28;1088;-44
2024/02/21 00:42:36;;;;;;;;;;;;;;;17.15;43.97;101608.31;5037722;28;1121;-45
2024/02/21 00:45:01;;;;;;;;;;;;;;;18.87;40.55;101597.34;5037263;28;1047;-44
2024/02/21 00:47:27;;;;;;;;;;;;;;;17.52;43.49;101600.19;5037182;28;2398;-45
2024/02/21 00:49:52;;;;;;;;;;;;;;;17.09;43.95;101604.69;5036978;28;1979;-44
2024/02/21 00:52:18;;;;;;;;;;;;;;;18.29;41.70;101603.59;5037745;28;1016;-43
2024/02/21 00:54:44;;;;;;;;;;;;;;;17.33;43.55;101591.47;5036705;28;1208;-43
2024/02/21 00:57:09;;;;;;;;;;;;;;;16.98;43.85;101595.47;5037153;28;1035;-44
2024/02/21 00:59:34;;;;;;;;;;;;;;;17.30;43.59;101586.50;5036955;28;1147;-45
2024/02/21 01:02:00;;;;;;;;;;;;;;;17.65;43.09;101593.44;5036991;28;1075;-43
2024/02/21 01:04:26;;;;;;;;;;;;;;;17.05;44.20;101587.03;5037545;28;1484;-44
2024/02/21 01:06:51;;;;;;;;;;;;;;;18.23;42.18;101590.06;5037069;28;1071;-48
2024/02/21 01:09:17;;;;;;;;;;;;;;;17.40;43.64;101581.13;5036596;28;1971;-47
2024/02/21 01:11:42;;;;;;;;;;;;;;;16.96;44.02;101591.31;5036879;28;1039;-46
2024/02/21 01:14:08;;;;;;;;;;;;;;;16.84;44.05;101583.19;5037076;28;1144;-46
2024/02/21 01:16:33;;;;;;;;;;;;;;;17.90;43.00;101578.25;5036903;28;1079;-44
2024/02/21 01:18:59;;;;;;;;;;;;;;;17.33;43.83;101577.72;5025883;28;2501;-45
2024/02/21 01:21:24;;;;;;;;;;;;;;;16.85;44.45;101580.19;5036519;28;1143;-47
2024/02/21 01:23:50;;;;;;;;;;;;;;;18.30;41.79;101575.00;5036490;28;1028;-47
2024/02/21 01:26:16;;;;;;;;;;;;;;;17.18;44.09;101577.56;5036636;28;1179;-46
2024/02/21 01:28:42;;;;;;;;;;;;;;;16.93;44.58;101577.03;5036236;28;1983;-47
2024/02/21 01:31:07;;;;;;;;;;;;;;;17.97;42.47;101575.31;5036449;28;1008;-50
2024/02/21 01:33:34;;;;;;;;;;;;;;;17.03;44.31;101576.31;5032329;28;1024;-43
2024/02/21 01:36:03;;;;;;;;;;;;;;;17.45;43.59;101570.16;5028000;28;1013;-46
2024/02/21 01:38:28;;;;;;;;;;;;;;;17.90;42.54;101567.25;5036026;28;1051;-44
2024/02/21 01:40:54;;;;;;;;;;;;;;;17.08;44.10;101565.38;5036359;28;1032;-48
2024/02/21 01:43:20;;;;;;;;;;;;;;;17.57;43.40;101563.66;5036260;28;1039;-43
2024/02/21 01:45:49;;;;;;;;;;;;;;;17.62;43.28;101572.78;5036027;28;1194;-45
2024/02/21 01:48:14;;;;;;;;;;;;;;;16.93;44.21;101574.28;5034223;28;1976;-44
2024/02/21 01:50:40;;;;;;;;;;;;;;;18.46;41.50;101570.38;5036264;28;1910;-47
2024/02/21 01:53:05;;;;;;;;;;;;;;;17.31;43.48;101571.66;5036148;28;1151;-45
2024/02/21 01:55:31;;;;;;;;;;;;;;;16.82;44.17;101572.47;5034927;28;1189;-45
2024/02/21 01:57:56;;;;;;;;;;;;;;;18.46;41.33;101570.38;5036015;28;1142;-44
2024/02/21 02:00:22;;;;;;;;;;;;;;;17.23;44.06;101572.13;5034668;28;1160;-46
2024/02/21 02:02:47;;;;;;;;;;;;;;;16.96;44.62;101575.69;5034927;28;1092;-44
2024/02/21 02:05:13;;;;;;;;;;;;;;;18.33;41.61;101573.63;5036281;28;1039;-49
2024/02/21 02:07:38;;;;;;;;;;;;;;;17.17;43.84;101565.75;5036050;28;1067;-46
2024/02/21 02:10:04;;;;;;;;;;;;;;;17.76;43.26;101572.34;5035842;28;1973;-47
2024/02/21 02:12:30;;;;;;;;;;;;;;;18.15;41.91;101574.06;5035744;28;1137;-47
2024/02/21 02:14:59;;;;;;;;;;;;;;;17.22;43.89;101574.06;5035577;28;1043;-46
2024/02/21 02:17:25;;;;;;;;;;;;;;;16.92;44.18;101580.03;5022547;28;2477;-43
2024/02/21 02:19:50;;;;;;;;;;;;;;;18.57;41.29;101581.47;5036091;28;1207;-44
2024/02/21 02:22:17;;;;;;;;;;;;;;;17.53;43.39;101581.75;5035789;28;1190;-45
2024/02/21 02:24:42;;;;;;;;;;;;;;;17.02;44.10;101588.38;5035652;28;1437;-45
2024/02/21 02:27:08;;;;;;;;;;;;;;;16.98;44.10;101589.16;5021502;28;1436;-44
2024/02/21 02:29:33;;;;;;;;;;;;;;;18.25;41.71;101574.13;5035890;28;1974;-45
2024/02/21 02:31:59;;;;;;;;;;;;;;;17.15;44.01;101583.56;5030611;28;1040;-44
2024/02/21 02:34:24;;;;;;;;;;;;;;;18.00;42.54;101581.09;5028456;28;1335;-46
2024/02/21 02:36:50;;;;;;;;;;;;;;;17.77;42.71;101580.34;5025833;28;1067;-46
2024/02/21 02:39:15;;;;;;;;;;;;;;;17.04;44.14;101574.38;5036085;28;1138;-45
2024/02/21 02:41:41;;;;;;;;;;;;;;;16.99;44.41;101575.16;5035734;28;1063;-44
2024/02/21 02:44:06;;;;;;;;;;;;;;;18.38;41.49;101573.66;5035277;28;1012;-44
2024/02/21 02:46:32;;;;;;;;;;;;;;;17.25;43.84;101578.19;5035618;28;1143;-48
2024/02/21 02:48:57;;;;;;;;;;;;;;;16.84;44.31;101578.50;5032860;28;2714;-47
2024/02/21 02:51:23;;;;;;;;;;;;;;;18.50;41.41;101573.44;5034413;28;1079;-43
2024/02/21 02:53:48;;;;;;;;;;;;;;;17.36;43.79;101579.97;5037253;28;1024;-45
2024/02/21 02:56:14;;;;;;;;;;;;;;;16.92;44.09;101580.84;5039333;28;1138;-49
2024/02/21 02:58:40;;;;;;;;;;;;;;;17.90;42.65;101581.00;5039483;28;1090;-44
2024/02/21 03:01:06;;;;;;;;;;;;;;;17.51;43.38;101578.47;5038768;28;1047;-44
2024/02/21 03:03:32;;;;;;;;;;;;;;;16.87;44.34;101582.66;5039503;28;1135;-43
2024/02/21 03:05:57;;;;;;;;;;;;;;;17.65;43.42;101578.88;5039087;28;1102;-45
2024/02/21 03:08:23;;;;;;;;;;;;;;;17.49;43.42;101577.88;5039285;28;1058;-45
2024/02/21 03:10:48;;;;;;;;;;;;;;;17.74;43.15;101580.03;5039086;28;1914;-43
2024/02/21 03:13:14;;;;;;;;;;;;;;;19.04;40.12;101574.25;5038745;28;1114;-45
2024/02/21 03:15:40;;;;;;;;;;;;;;;17.52;43.33;101571.88;5025641;28;1019;-46
2024/02/21 03:18:05;;;;;;;;;;;;;;;17.69;43.41;101589.06;5036995;28;2495;-47
2024/02/21 03:20:32;;;;;;;;;;;;;;;18.12;41.82;101583.69;5039038;28;1091;-48
2024/02/21 03:22:57;;;;;;;;;;;;;;;17.25;43.49;101583.69;5039401;28;1079;-45
2024/02/21 03:25:23;;;;;;;;;;;;;;;18.16;42.15;101581.22;5039139;28;1167;-44
2024/02/21 03:27:49;;;;;;;;;;;;;;;17.62;43.04;101577.47;5038955;28;1255;-44
2024/02/21 03:30:14;;;;;;;;;;;;;;;17.19;43.62;101587.47;5025748;28;1983;-46
2024/02/21 03:32:40;;;;;;;;;;;;;;;16.96;43.66;101589.41;5027991;28;1062;-45
2024/02/21 03:35:06;;;;;;;;;;;;;;;17.94;42.51;101584.91;5019012;28;1079;-47
2024/02/21 03:37:31;;;;;;;;;;;;;;;17.76;42.61;101586.13;5029796;28;1083;-45
2024/02/21 03:39:57;;;;;;;;;;;;;;;17.01;44.05;101594.13;5038694;28;1067;-43
2024/02/21 03:42:22;;;;;;;;;;;;;;;18.43;41.74;101581.94;5038634;28;1110;-45
2024/02/21 03:44:48;;;;;;;;;;;;;;;17.58;43.24;101581.81;5025555;28;1011;-44
2024/02/21 03:47:14;;;;;;;;;;;;;;;17.05;43.82;101579.63;5038773;28;1127;-46
2024/02/21 03:49:39;;;;;;;;;;;;;;;17.75;43.17;101577.03;5035288;28;1890;-47
2024/02/21 03:52:05;;;;;;;;;;;;;;;17.97;42.50;101575.31;5027860;28;1067;-49
2024/02/21 03:54:30;;;;;;;;;;;;;;;17.14;43.92;101576.41;5038595;28;1448;-44
2024/02/21 03:56:56;;;;;;;;;;;;;;;17.00;44.08;101581.47;5038402;28;1110;-46
2024/02/21 03:59:22;;;;;;;;;;;;;;;18.33;41.52;101572.78;5038243;28;1126;-45
2024/02/21 04:01:51;;;;;;;;;;;;;;;17.18;43.86;101583.91;5038309;28;841;-44
2024/02/21 04:04:16;;;;;;;;;;;;;;;18.30;41.94;101571.41;5024465;28;1222;-49
2024/02/21 04:06:51;;;;;;;;;;;;;;;17.86;42.26;101566.13;5037998;28;1175;-43
2024/02/21 04:09:16;;;;;;;;;;;;;;;17.13;44.00;101572.03;5037880;28;1906;-48
2024/02/21 04:11:42;;;;;;;;;;;;;;;18.24;42.07;101570.56;5037992;28;1075;-46
2024/02/21 04:14:07;;;;;;;;;;;;;;;17.22;43.71;101567.72;5037903;28;1296;-49
2024/02/21 04:16:33;;;;;;;;;;;;;;;17.14;44.06;101581.91;5037614;28;1166;-46
2024/02/21 04:18:59;;;;;;;;;;;;;;;18.26;41.88;101564.78;5027844;28;1075;-46
2024/02/21 04:21:25;;;;;;;;;;;;;;;17.23;43.83;101563.88;5035224;28;1425;-46
2024/02/21 04:23:50;;;;;;;;;;;;;;;17.00;44.19;101565.00;5037823;28;1059;-49
2024/02/21 04:26:16;;;;;;;;;;;;;;;18.22;41.91;101569.16;5037941;28;1163;-50
2024/02/21 04:28:42;;;;;;;;;;;;;;;17.27;43.56;101581.53;5037662;28;1973;-49
2024/02/21 04:31:07;;;;;;;;;;;;;;;17.81;42.73;101580.66;5038211;28;1131;-47
2024/02/21 04:33:33;;;;;;;;;;;;;;;17.51;43.40;101581.22;5038239;28;1122;-47
2024/02/21 04:36:00;;;;;;;;;;;;;;;17.00;44.08;101585.06;5033725;28;1150;-48
2024/02/21 04:38:25;;;;;;;;;;;;;;;17.93;42.76;101580.50;5035754;28;2703;-44
2024/02/21 04:40:51;;;;;;;;;;;;;;;17.43;43.52;101580.59;5037256;28;1821;-48
2024/02/21 04:43:16;;;;;;;;;;;;;;;17.62;43.09;101578.28;5028401;28;1924;-48
2024/02/21 04:45:42;;;;;;;;;;;;;;;18.85;40.47;101590.44;5034396;28;1810;-51
2024/02/21 04:48:07;;;;;;;;;;;;;;;17.42;43.28;101580.84;5026574;28;2201;-50
2024/02/21 04:50:33;;;;;;;;;;;;;;;17.07;43.86;101582.13;5032865;28;2249;-55
2024/02/21 04:52:58;;;;;;;;;;;;;;;17.00;43.46;101584.22;5033208;28;1090;-58
2024/02/21 04:55:24;;;;;;;;;;;;;;;18.45;41.48;101579.78;5024208;28;1266;-54
2024/02/21 04:57:49;;;;;;;;;;;;;;;17.22;44.00;101575.97;5037001;28;1047;-52
2024/02/21 05:00:15;;;;;;;;;;;;;;;16.89;44.57;101586.03;5037112;28;1027;-52
2024/02/21 05:02:41;;;;;;;;;;;;;;;18.28;41.63;101579.09;5022543;28;915;-52
2024/02/21 05:05:06;;;;;;;;;;;;;;;17.24;43.92;101576.53;5020805;28;1397;-51
2024/02/21 05:07:32;;;;;;;;;;;;;;;18.01;42.52;101585.53;5034593;28;1116;-56
2024/02/21 05:09:57;;;;;;;;;;;;;;;18.11;42.04;101595.78;5037151;28;1988;-56
2024/02/21 05:12:23;;;;;;;;;;;;;;;17.31;43.84;101592.84;5037069;28;1123;-53
2024/02/21 05:14:49;;;;;;;;;;;;;;;18.19;42.13;101598.03;5036446;28;1028;-54
2024/02/21 05:17:15;;;;;;;;;;;;;;;17.88;42.58;101613.44;5030554;28;1003;-47
2024/02/21 05:19:40;;;;;;;;;;;;;;;17.37;43.79;101613.78;5021719;28;2069;-52
2024/02/21 05:22:06;;;;;;;;;;;;;;;17.06;44.32;101614.25;5028561;28;1171;-51
2024/02/21 05:24:32;;;;;;;;;;;;;;;16.79;45.07;101622.41;5031670;28;1188;-51
2024/02/21 05:26:57;;;;;;;;;;;;;;;16.63;45.19;101623.28;5036456;28;861;-50
2024/02/21 05:29:23;;;;;;;;;;;;;;;16.48;45.69;101623.88;5035166;28;1987;-47
2024/02/21 05:31:51;;;;;;;;;;;;;;;16.37;45.97;101621.00;5032640;28;1326;-49
2024/02/21 05:34:17;;;;;;;;;;;;;;;16.23;46.26;101623.25;5031356;28;1353;-53
2024/02/21 05:36:42;;;;;;;;;;;;;;;16.07;46.37;101630.44;5029354;28;1376;-47
2024/02/21 05:39:08;;;;;;;;;;;;;;;15.95;46.84;101626.06;5028494;28;856;-50
2024/02/21 05:41:33;;;;;;;;;;;;;;;15.81;47.14;101631.03;5035260;28;1143;-48
2024/02/21 05:43:59;;;;;;;;;;;;;;;15.66;47.34;101637.91;5036699;28;1039;-51
2024/02/21 05:46:24;;;;;;;;;;;;;;;15.58;47.76;101643.78;5030828;28;1044;-47
2024/02/21 05:48:50;;;;;;;;;;;;;;;15.50;47.81;101639.53;5016459;28;1989;-50
2024/02/21 05:51:16;;;;;;;;;;;;;;;15.46;47.71;101640.25;5034335;28;2191;-49
2024/02/21 05:53:41;;;;;;;;;;;;;;;16.91;44.28;101636.06;5028798;28;1012;-50
2024/02/21 05:56:10;;;;;;;;;;;;;;;17.17;43.70;101641.88;5035969;28;1140;-51
2024/02/21 05:58:35;;;;;;;;;;;;;;;16.23;45.72;101649.88;5028030;28;1379;-52
2024/02/21 06:01:03;;;;;;;;;;;;;;;15.91;46.69;101647.69;5032864;28;1111;-47
2024/02/21 06:03:29;;;;;;;;;;;;;;;15.75;46.78;101654.78;5035828;28;895;-48
2024/02/21 06:05:54;;;;;;;;;;;;;;;15.62;47.12;101653.19;5036233;28;1119;-48
2024/02/21 06:08:20;;;;;;;;;;;;;;;17.10;43.69;101653.88;5028609;28;1110;-46
2024/02/21 06:10:45;;;;;;;;;;;;;;;17.05;43.69;101666.72;5015998;28;1971;-48
2024/02/21 06:13:11;;;;;;;;;;;;;;;16.26;45.49;101665.84;5016895;28;1090;-49
2024/02/21 06:15:36;;;;;;;;;;;;;;;15.97;46.32;101663.16;5033215;28;928;-46
2024/02/21 06:18:02;;;;;;;;;;;;;;;15.74;46.82;101664.09;5023426;28;1084;-46
2024/02/21 06:20:27;;;;;;;;;;;;;;;15.48;47.65;101658.13;5029372;28;1938;-46
2024/02/21 06:22:53;;;;;;;;;;;;;;;16.52;45.01;101668.97;5035822;28;1082;-51
2024/02/21 06:25:18;;;;;;;;;;;;;;;17.37;42.83;101669.59;5035264;28;1134;-49
2024/02/21 06:27:44;;;;;;;;;;;;;;;16.46;44.92;101668.06;5035838;28;896;-47
2024/02/21 06:30:10;;;;;;;;;;;;;;;15.95;46.42;101659.00;5039833;28;1910;-49
2024/02/21 06:32:35;;;;;;;;;;;;;;;15.80;46.76;101651.34;5022765;28;1243;-48
2024/02/21 06:35:01;;;;;;;;;;;;;;;15.58;47.32;101654.75;5035865;28;1131;-50
2024/02/21 06:37:27;;;;;;;;;;;;;;;16.97;44.09;101654.28;5039598;28;1090;-44
2024/02/21 06:39:52;;;;;;;;;;;;;;;17.29;42.99;101650.78;5036875;28;1397;-45
2024/02/21 06:42:18;;;;;;;;;;;;;;;16.41;44.93;101655.09;5039559;28;1079;-54
2024/02/21 06:44:44;;;;;;;;;;;;;;;15.99;46.21;101650.03;5039679;28;1166;-56
2024/02/21 06:47:09;;;;;;;;;;;;;;;15.76;46.87;101642.72;5039631;28;1365;-56
2024/02/21 06:49:36;;;;;;;;;;;;;;;15.60;47.03;101647.13;5035136;28;1910;-58
2024/02/21 06:52:03;;;;;;;;;;;;;;;16.51;45.08;101642.59;5035422;28;2404;-56
2024/02/21 06:54:28;;;;;;;;;;;;;;;17.56;42.68;101644.53;5036506;28;1230;-56
2024/02/21 06:56:54;;;;;;;;;;;;;;;16.55;44.70;101641.84;5028269;28;1044;-47
2024/02/21 06:59:19;;;;;;;;;;;;;;;16.12;45.94;101650.78;5035858;28;1372;-58
2024/02/21 07:01:48;;;;;;;;;;;;;;;15.84;46.58;101641.53;5060211;28;1285;-56
2024/02/21 07:04:14;;;;;;;;;;;;;;;15.64;46.93;101636.47;5025881;28;1091;-57
2024/02/21 07:06:40;;;;;;;;;;;;;;;16.67;44.67;101638.19;5039044;28;1056;-56
2024/02/21 07:09:05;;;;;;;;;;;;;;;17.66;42.44;101646.53;5039189;28;1983;-55
2024/02/21 07:11:31;;;;;;;;;;;;;;;16.66;44.45;101652.97;5030932;28;1182;-53
2024/02/21 07:13:56;;;;;;;;;;;;;;;16.17;45.79;101648.13;5029211;28;1337;-55
2024/02/21 07:16:22;;;;;;;;;;;;;;;15.84;46.42;101652.50;5034240;28;1376;-50
2024/02/21 07:18:47;;;;;;;;;;;;;;;15.76;46.58;101650.13;5035381;28;1072;-49
2024/02/21 07:21:13;;;;;;;;;;;;;;;17.06;43.96;101652.72;5030409;28;1913;-50
2024/02/21 07:23:42;;;;;;;;;;;;;;;17.30;42.97;101652.47;5034220;28;1348;-49
2024/02/21 07:26:07;;;;;;;;;;;;;;;16.46;45.15;101657.09;5034633;28;1178;-49
2024/02/21 07:28:33;;;;;;;;;;;;;;;16.11;45.81;101657.34;5038958;28;1285;-54
2024/02/21 07:30:59;;;;;;;;;;;;;;;15.88;46.42;101649.03;5038514;28;1910;-55
2024/02/21 07:33:24;;;;;;;;;;;;;;;15.77;46.63;101658.13;5036307;28;1306;-51
2024/02/21 07:35:50;;;;;;;;;;;;;;;16.70;44.51;101657.69;5035352;28;1234;-51
2024/02/21 07:38:18;;;;;;;;;;;;;;;17.64;42.44;101657.78;5035767;28;1359;-56
2024/02/21 07:40:46;;;;;;;;;;;;;;;16.59;44.64;101658.63;5034863;28;1041;-52
2024/02/21 07:43:12;;;;;;;;;;;;;;;16.14;45.59;101651.38;5037940;28;1096;-51
2024/02/21 07:45:39;;;;;;;;;;;;;;;15.89;46.51;101656.19;5037524;28;1139;-51
2024/02/21 07:48:05;;;;;;;;;;;;;;;15.70;46.93;101658.25;5027981;28;1317;-54
2024/02/21 07:50:30;;;;;;;;;;;;;;;16.46;45.38;101665.31;5035830;28;2119;-56
2024/02/21 07:52:56;;;;;;;;;;;;;;;17.64;42.49;101663.28;5038299;28;1324;-57
2024/02/21 07:55:21;;;;;;;;;;;;;;;16.81;44.09;101666.94;5037898;28;1167;-55
2024/02/21 07:57:47;;;;;;;;;;;;;;;16.20;45.73;101667.66;5036677;28;1315;-54
2024/02/21 08:00:19;;;;;;;;;;;;;;;16.02;45.93;101667.88;5032237;28;1178;-50
2024/02/21 08:02:48;;;;;;;;;;;;;;;15.71;47.00;101659.94;5036079;28;1001;-54
2024/02/21 08:05:13;;;;;;;;;;;;;;;15.64;47.37;101672.13;5029632;28;1007;-48
2024/02/21 08:07:39;;;;;;;;;;;;;;;17.09;43.61;101673.38;5037769;28;980;-48
2024/02/21 08:10:07;;;;;;;;;;;;;;;16.91;44.17;101666.25;5034829;28;1985;-51
2024/02/21 08:12:32;;;;;;;;;;;;;;;16.24;45.52;101665.25;5036766;28;1361;-52
2024/02/21 08:14:58;;;;;;;;;;;;;;;15.94;46.40;101665.56;5036839;28;1012;-50
2024/02/21 08:17:23;;;;;;;;;;;;;;;15.77;46.84;101662.75;5034922;28;1435;-51
2024/02/21 08:19:49;;;;;;;;;;;;;;;15.58;47.35;101660.22;5036268;28;1886;-51
2024/02/21 08:22:15;;;;;;;;;;;;;;;16.26;45.62;101665.84;5036436;28;1406;-46
2024/02/21 08:24:40;;;;;;;;;;;;;;;17.50;42.68;101662.03;5036265;28;1063;-51
2024/02/21 08:27:06;;;;;;;;;;;;;;;16.76;44.18;101664.94;5035764;28;1012;-47
2024/02/21 08:29:31;;;;;;;;;;;;;;;16.32;45.38;101658.53;5036480;28;1985;-49
2024/02/21 08:31:57;;;;;;;;;;;;;;;15.97;46.34;101657.66;5035527;28;1242;-51
2024/02/21 08:34:22;;;;;;;;;;;;;;;15.76;46.75;101658.38;5027258;28;1275;-53
2024/02/21 08:36:48;;;;;;;;;;;;;;;16.59;45.21;101658.63;5027305;28;1298;-53
2024/02/21 08:39:16;;;;;;;;;;;;;;;17.61;42.46;101655.56;5031885;28;1392;-50
2024/02/21 08:41:42;;;;;;;;;;;;;;;16.64;44.82;101650.50;5035622;28;1428;-48
2024/02/21 08:44:07;;;;;;;;;;;;;;;16.45;45.19;101660.09;5036343;28;1044;-50
2024/02/21 08:46:33;;;;;;;;;;;;;;;16.23;45.74;101655.38;5037133;28;1071;-49
2024/02/21 08:48:58;;;;;;;;;;;;;;;15.95;46.61;101651.59;5036149;28;1902;-51
2024/02/21 08:51:24;;;;;;;;;;;;;;;15.82;47.07;101649.16;5033217;28;1998;-51
2024/02/21 08:53:49;;;;;;;;;;;;;;;17.30;43.71;101657.97;5037708;28;1096;-51
2024/02/21 08:56:15;;;;;;;;;;;;;;;17.09;43.85;101643.97;5027188;28;1104;-54
2024/02/21 08:58:41;;;;;;;;;;;;;;;16.37;45.55;101653.13;5036056;28;1097;-50
2024/02/21 09:01:11;;;;;;;;;;;;;;;16.05;46.44;101654.53;5037338;28;948;-50
2024/02/21 09:03:37;;;;;;;;;;;;;;;15.76;46.87;101650.13;5035859;28;1095;-47
2024/02/21 09:06:04;;;;;;;;;;;;;;;15.66;47.24;101651.59;5036876;28;1400;-49
2024/02/21 09:08:29;;;;;;;;;;;;;;;16.19;45.89;101646.78;5031372;28;1313;-50
2024/02/21 09:10:55;;;;;;;;;;;;;;;17.51;43.14;101653.53;5036297;28;1909;-53
2024/02/21 09:13:20;;;;;;;;;;;;;;;16.84;44.16;101652.69;5036992;28;1052;-51
2024/02/21 09:15:47;;;;;;;;;;;;;;;16.24;45.57;101646.03;5033796;28;1080;-52
2024/02/21 09:18:12;;;;;;;;;;;;;;;15.90;46.68;101646.84;5033854;28;1552;-49
2024/02/21 09:20:38;;;;;;;;;;;;;;;15.77;47.04;101649.03;5025455;28;2053;-57
2024/02/21 09:23:03;;;;;;;;;;;;;;;16.60;45.25;101650.16;5032016;28;1509;-55
2024/02/21 09:25:29;;;;;;;;;;;;;;;17.62;42.45;101644.28;5034558;28;1099;-54
2024/02/21 09:27:55;;;;;;;;;;;;;;;16.67;44.47;101652.72;5035983;28;980;-54
2024/02/21 09:30:20;;;;;;;;;;;;;;;16.13;46.09;101652.44;5033405;28;1906;-55
2024/02/21 09:32:46;;;;;;;;;;;;;;;15.98;46.50;101653.03;5032652;28;1552;-53
2024/02/21 09:35:12;;;;;;;;;;;;;;;15.76;47.11;101644.66;5035890;28;1139;-55
2024/02/21 09:37:38;;;;;;;;;;;;;;;15.57;47.21;101637.47;5036224;28;1083;-55
2024/02/21 09:40:04;;;;;;;;;;;;;;;17.08;44.08;101634.09;5036054;28;1143;-54
2024/02/21 09:42:39;;;;;;;;;;;;;;;17.33;43.16;101640.94;5036693;28;1134;-58
2024/02/21 09:45:08;;;;;;;;;;;;;;;16.44;45.38;101642.78;5017251;28;1012;-45
2024/02/21 09:47:39;;;;;;;;;;;;;;;16.07;46.26;101637.81;5025501;28;1039;-59
2024/02/21 09:50:04;;;;;;;;;;;;;;;15.84;46.59;101636.88;5032869;28;2026;-57
2024/02/21 09:52:30;;;;;;;;;;;;;;;15.69;46.92;101629.16;5053397;28;1087;-51
2024/02/21 09:54:56;;;;;;;;;;;;;;;15.79;46.97;101633.19;5032467;28;1419;-47
2024/02/21 09:57:22;;;;;;;;;;;;;;;17.28;43.38;101627.16;5030696;28;1116;-58
2024/02/21 09:59:49;;;;;;;;;;;;;;;16.91;44.19;101622.31;5020811;28;1218;-57
2024/02/21 10:02:15;;;;;;;;;;;;;;;16.29;45.49;101631.59;5031998;28;1091;-51
2024/02/21 10:04:41;;;;;;;;;;;;;;;15.94;46.40;101619.75;5027898;28;1167;-55
2024/02/21 10:07:08;;;;;;;;;;;;;;;15.69;47.11;101623.69;5036266;28;1032;-57
2024/02/21 10:09:34;;;;;;;;;;;;;;;15.59;47.51;101620.78;5035603;28;1910;-57
2024/02/21 10:12:12;;;;;;;;;;;;;;;17.15;43.93;101611.06;5034570;28;1076;-56
2024/02/21 10:14:38;;;;;;;;;;;;;;;16.96;43.89;101607.81;5036195;28;901;-56
2024/02/21 10:17:05;;;;;;;;;;;;;;;16.18;45.85;101601.22;5032026;28;1124;-61
2024/02/21 10:19:31;;;;;;;;;;;;;;;15.90;46.42;101596.66;5029155;28;1407;-56
2024/02/21 10:22:00;;;;;;;;;;;;;;;15.72;46.89;101594.94;5034666;28;2547;-56
2024/02/21 10:24:27;;;;;;;;;;;;;;;15.62;47.32;101594.78;5035896;28;1220;-55
2024/02/21 10:27:03;;;;;;;;;;;;;;;16.95;44.22;101593.25;5034824;28;1023;-54
2024/02/21 10:29:31;;;;;;;;;;;;;;;17.57;42.70;101585.66;5030107;28;1906;-60
2024/02/21 10:32:25;;;;;;;;;;;;;;;16.48;45.13;101580.81;5029966;28;1302;-53
2024/02/21 10:35:00;;;;;;;;;;;;;;;16.07;46.18;101572.81;5030436;28;1823;-53
2024/02/21 10:37:25;;;;;;;;;;;;;;;15.90;46.48;101570.06;5028243;28;1266;-60
2024/02/21 10:39:51;;;;;;;;;;;;;;;15.67;47.23;101565.53;5029468;28;1313;-60
2024/02/21 10:42:17;;;;;;;;;;;;;;;15.89;46.63;101557.44;5034787;28;1151;-58
2024/02/21 10:44:43;;;;;;;;;;;;;;;17.33;43.26;101557.66;5061693;28;1135;-55
2024/02/21 10:47:09;;;;;;;;;;;;;;;17.01;43.94;101555.66;5020138;28;1333;-53
2024/02/21 10:49:39;;;;;;;;;;;;;;;16.23;45.65;101548.34;5032635;28;1981;-57
2024/02/21 10:52:08;;;;;;;;;;;;;;;16.00;46.51;101558.41;5023885;28;1238;-57
2024/02/21 10:54:53;;;;;;;;;;;;;;;15.79;46.81;101549.03;5033989;28;1258;-56
2024/02/21 10:57:19;;;;;;;;;;;;;;;15.61;47.19;101549.25;5034212;28;982;-50
2024/02/21 10:59:44;;;;;;;;;;;;;;;17.04;44.09;101545.00;5029746;28;1112;-55
2024/02/21 11:02:10;;;;;;;;;;;;;;;17.28;43.51;101545.53;5032663;28;1626;-56
2024/02/21 11:04:36;;;;;;;;;;;;;;;16.36;45.23;101539.72;5030086;28;1092;-57
2024/02/21 11:07:03;;;;;;;;;;;;;;;16.01;46.05;101535.38;5035670;28;1096;-57
2024/02/21 11:09:29;;;;;;;;;;;;;;;15.82;46.88;101544.97;5062881;28;1906;-53
2024/02/21 11:11:55;;;;;;;;;;;;;;;15.62;47.03;101543.50;5036230;28;1008;-51
2024/02/21 11:14:21;;;;;;;;;;;;;;;15.85;47.03;101544.44;5035804;28;1246;-49
2024/02/21 11:16:46;;;;;;;;;;;;;;;17.31;43.29;101537.88;5038022;28;1083;-53
2024/02/21 11:19:27;;;;;;;;;;;;;;;16.89;43.99;101526.41;5028336;28;1118;-54
2024/02/21 11:21:54;;;;;;;;;;;;;;;16.19;45.83;101534.28;5030973;28;2188;-56
2024/02/21 11:24:29;;;;;;;;;;;;;;;15.89;46.48;101540.97;5025692;28;1054;-53
2024/02/21 11:26:56;;;;;;;;;;;;;;;15.75;47.05;101545.09;5037346;28;1034;-57
2024/02/21 11:29:25;;;;;;;;;;;;;;;15.86;46.81;101551.59;5032192;28;1986;-57
2024/02/21 11:31:50;;;;;;;;;;;;;;;17.29;43.25;101543.59;5037554;28;1202;-51
2024/02/21 11:34:17;;;;;;;;;;;;;;;16.99;44.01;101546.88;5032369;28;1118;-57
2024/02/21 11:36:50;;;;;;;;;;;;;;;16.36;45.76;101545.22;5036667;28;1278;-61
2024/02/21 11:39:20;;;;;;;;;;;;;;;15.96;46.57;101540.78;5036609;28;1032;-60
2024/02/21 11:41:46;;;;;;;;;;;;;;;15.76;47.08;101546.75;5032566;28;1219;-53
2024/02/21 11:44:12;;;;;;;;;;;;;;;15.56;47.24;101533.56;5035133;28;1154;-55
2024/02/21 11:46:37;;;;;;;;;;;;;;;16.56;45.31;101536.44;5037032;28;1535;-49
2024/02/21 11:49:03;;;;;;;;;;;;;;;17.64;42.61;101531.25;5034602;28;1913;-48
2024/02/21 11:51:29;;;;;;;;;;;;;;;16.62;44.17;101498.91;5066956;28;2636;-53
2024/02/21 11:53:54;;;;;;;;;;;;;;;16.20;45.64;101530.47;5027698;28;901;-54
2024/02/21 11:56:20;;;;;;;;;;;;;;;15.90;46.36;101530.84;5036484;28;1121;-49
2024/02/21 11:58:47;;;;;;;;;;;;;;;15.57;47.21;101527.81;5036936;28;1387;-48
2024/02/21 12:01:13;;;;;;;;;;;;;;;15.55;47.58;101523.66;5054169;28;1038;-49
2024/02/21 12:03:40;;;;;;;;;;;;;;;16.88;44.39;101523.91;5030298;28;1012;-56
2024/02/21 12:06:06;;;;;;;;;;;;;;;17.56;42.83;101518.03;5052194;28;923;-50
2024/02/21 12:08:42;;;;;;;;;;;;;;;16.51;44.99;101530.03;5038090;28;1042;-52
2024/02/21 12:11:28;;;;;;;;;;;;;;;16.01;46.28;101520.84;5037724;28;1914;-55
2024/02/21 12:14:00;;;;;;;;;;;;;;;15.80;46.99;101512.31;5036600;28;1591;-52
2024/02/21 12:16:27;;;;;;;;;;;;;;;15.65;47.35;101506.53;5036964;28;1171;-50
2024/02/21 12:18:53;;;;;;;;;;;;;;;16.85;44.35;101505.19;5032001;28;1254;-54
2024/02/21 12:21:18;;;;;;;;;;;;;;;17.40;43.09;101501.41;5037507;28;2443;-48
2024/02/21 12:23:44;;;;;;;;;;;;;;;16.43;45.21;101506.63;5038039;28;1041;-57
2024/02/21 12:26:09;;;;;;;;;;;;;;;16.00;46.57;101503.53;5033958;28;944;-51
2024/02/21 12:28:35;;;;;;;;;;;;;;;15.78;46.97;101503.47;5031853;28;1313;-51
2024/02/21 12:31:00;;;;;;;;;;;;;;;15.66;47.30;101495.31;5036711;28;1996;-49
2024/02/21 12:33:26;;;;;;;;;;;;;;;16.63;45.31;101495.03;5032684;28;1230;-52
2024/02/21 12:35:51;;;;;;;;;;;;;;;17.69;42.58;101492.00;5033670;28;1488;-49
2024/02/21 12:38:19;;;;;;;;;;;;;;;16.73;44.57;101492.44;5024685;28;1358;-51
2024/02/21 12:40:44;;;;;;;;;;;;;;;16.17;45.99;101488.97;5029111;28;980;-50
2024/02/21 12:43:10;;;;;;;;;;;;;;;15.97;46.36;101490.34;5037012;28;1356;-49